createdAt,value
2022-09-07T00:04:23.396Z,17.00
2022-09-07T00:08:48.875Z,17.00
2022-09-07T00:13:14.145Z,16.90
2022-09-07T00:17:39.775Z,16.80
2022-09-07T00:22:05.162Z,16.80
2022-09-07T00:26:31.644Z,16.80
2022-09-07T00:30:57.271Z,16.80
2022-09-07T00:35:22.588Z,16.70
2022-09-07T00:39:47.889Z,16.70
2022-09-07T00:44:44.198Z,16.70
2022-09-07T00:49:16.212Z,16.70
2022-09-07T00:53:58.109Z,16.60
2022-09-07T00:58:24.471Z,16.50
2022-09-07T01:02:53.579Z,16.50
2022-09-07T01:07:19.722Z,16.50
2022-09-07T01:11:50.792Z,16.40
2022-09-07T01:17:10.425Z,16.40
2022-09-07T01:22:19.097Z,16.40
2022-09-07T01:27:29.381Z,16.30
2022-09-07T01:32:35.389Z,16.30
2022-09-07T01:37:14.424Z,16.20
2022-09-07T01:41:50.980Z,16.20
2022-09-07T01:46:31.112Z,16.20
2022-09-07T01:51:02.983Z,16.20
2022-09-07T01:55:36.627Z,16.10
2022-09-07T02:00:13.234Z,16.10
2022-09-07T02:04:57.124Z,16.10
2022-09-07T02:09:34.295Z,16.10
2022-09-07T02:14:23.421Z,16.00
2022-09-07T02:18:55.156Z,16.10
2022-09-07T02:23:30.877Z,16.00
2022-09-07T02:28:14.422Z,16.00
2022-09-07T02:32:39.796Z,16.10
2022-09-07T02:37:09.066Z,16.00
2022-09-07T02:41:48.044Z,16.10
2022-09-07T02:46:59.919Z,16.10
2022-09-07T02:51:42.985Z,16.10
2022-09-07T02:56:26.221Z,16.10
2022-09-07T03:01:04.413Z,16.10
2022-09-07T03:05:49.899Z,16.10
2022-09-07T03:10:16.630Z,16.10
2022-09-07T03:14:43.468Z,16.10
2022-09-07T03:19:08.905Z,16.10
2022-09-07T03:23:34.171Z,16.10
2022-09-07T03:27:59.427Z,16.00
2022-09-07T03:32:25.067Z,16.00
2022-09-07T03:36:50.325Z,16.00
2022-09-07T03:41:15.570Z,16.00
2022-09-07T03:45:40.858Z,16.00
2022-09-07T03:50:07.402Z,16.00
2022-09-07T03:54:34.911Z,16.00
2022-09-07T03:59:02.159Z,16.00
2022-09-07T04:03:27.722Z,16.00
2022-09-07T04:07:52.952Z,16.00
2022-09-07T04:12:18.280Z,16.00
2022-09-07T04:16:45.464Z,15.90
2022-09-07T04:21:11.495Z,15.90
2022-09-07T04:25:36.837Z,15.90
2022-09-07T04:30:02.076Z,15.90
2022-09-07T04:34:27.540Z,15.80
2022-09-07T04:38:59.699Z,15.80
2022-09-07T04:43:24.945Z,15.80
2022-09-07T04:47:51.048Z,15.80
2022-09-07T04:52:16.283Z,15.80
2022-09-07T04:56:41.566Z,15.80
2022-09-07T05:01:07.834Z,15.80
2022-09-07T05:05:38.349Z,15.80
2022-09-07T05:10:04.426Z,15.80
2022-09-07T05:14:29.685Z,15.80
2022-09-07T05:19:01.601Z,15.90
2022-09-07T05:23:27.266Z,15.90
2022-09-07T05:27:53.367Z,15.90
2022-09-07T05:32:18.683Z,16.00
2022-09-07T05:36:44.090Z,16.00
2022-09-07T05:41:17.743Z,16.10
2022-09-07T05:45:43.049Z,16.10
2022-09-07T05:50:09.954Z,16.10
2022-09-07T05:54:36.454Z,16.20
2022-09-07T05:59:01.784Z,16.20
2022-09-07T06:03:27.621Z,16.30
2022-09-07T06:07:53.071Z,16.40
2022-09-07T06:12:18.755Z,16.40
2022-09-07T06:16:44.115Z,16.50
2022-09-07T06:21:13.116Z,16.60
2022-09-07T06:25:38.474Z,16.60
2022-09-07T06:30:05.377Z,16.60
2022-09-07T06:34:30.715Z,16.70
2022-09-07T06:38:59.127Z,16.70
2022-09-07T06:43:24.413Z,16.80
2022-09-07T06:47:53.936Z,16.90
2022-09-07T06:52:19.227Z,16.90
2022-09-07T06:56:44.620Z,17.00
2022-09-07T07:01:20.949Z,17.10
2022-09-07T07:05:57.312Z,17.10
2022-09-07T07:10:25.033Z,17.20
2022-09-07T07:14:50.572Z,17.20
2022-09-07T07:19:16.205Z,17.30
2022-09-07T07:23:42.012Z,17.30
2022-09-07T07:32:53.250Z,17.40
2022-09-07T07:37:18.815Z,17.50
2022-09-07T07:42:03.131Z,17.60
2022-09-07T07:46:30.359Z,17.70
2022-09-07T07:51:04.356Z,17.80
2022-09-07T07:55:47.840Z,17.90
2022-09-07T08:00:14.264Z,18.00
2022-09-07T08:04:39.457Z,18.10
2022-09-07T08:09:04.741Z,18.20
2022-09-07T08:13:34.154Z,18.30
2022-09-07T08:17:59.687Z,18.40
2022-09-07T08:22:24.887Z,18.50
2022-09-07T08:26:50.352Z,18.70
2022-09-07T08:31:16.977Z,18.80
2022-09-07T08:35:42.473Z,18.90
2022-09-07T08:40:09.629Z,18.90
2022-09-07T08:44:48.758Z,19.00
2022-09-07T08:49:27.143Z,19.00
2022-09-07T08:53:52.746Z,19.10
2022-09-07T08:58:49.217Z,19.10
2022-09-07T09:03:30.915Z,19.20
2022-09-07T09:08:41.986Z,19.30
2022-09-07T09:13:18.846Z,19.50
2022-09-07T09:18:42.426Z,19.50
2022-09-07T09:23:14.351Z,19.60
2022-09-07T09:27:39.770Z,19.60
2022-09-07T09:32:41.552Z,19.60
2022-09-07T09:37:11.763Z,19.70
2022-09-07T09:41:37.539Z,19.70
2022-09-07T09:46:18.635Z,19.60
2022-09-07T09:55:37.798Z,19.50
2022-09-07T10:00:08.696Z,19.40
2022-09-07T10:04:35.783Z,19.40
2022-09-07T10:09:02.520Z,19.50
2022-09-07T10:13:42.405Z,19.40
2022-09-07T10:18:18.535Z,19.40
2022-09-07T10:23:05.388Z,19.40
2022-09-07T10:27:37.107Z,19.40
2022-09-07T10:32:40.562Z,19.40
2022-09-07T10:37:09.568Z,19.60
2022-09-07T10:41:47.891Z,19.60
2022-09-07T10:47:02.933Z,19.70
2022-09-07T10:52:00.901Z,19.80
2022-09-07T10:56:28.613Z,19.90
2022-09-07T11:01:26.871Z,20.00
2022-09-07T11:06:24.471Z,20.20
2022-09-07T11:11:11.273Z,20.30
2022-09-07T11:16:50.416Z,20.40
2022-09-07T11:20:58.990Z,20.50
2022-09-07T11:25:41.164Z,20.60
2022-09-07T11:30:24.115Z,20.80
2022-09-07T11:34:57.666Z,20.90
2022-09-07T11:39:35.347Z,21.10
2022-09-07T11:44:31.741Z,21.40
2022-09-07T11:48:58.803Z,21.60
2022-09-07T11:53:38.395Z,21.70
2022-09-07T11:58:32.536Z,22.00
2022-09-07T12:03:01.149Z,22.20
2022-09-07T12:07:41.910Z,22.50
2022-09-07T12:12:42.030Z,22.70
2022-09-07T12:17:53.718Z,22.90
2022-09-07T12:22:21.863Z,23.10
2022-09-07T12:26:50.289Z,23.20
2022-09-07T12:36:41.055Z,23.60
2022-09-07T12:41:40.785Z,23.70
2022-09-07T12:46:34.762Z,23.80
2022-09-07T12:51:13.458Z,24.00
2022-09-07T12:56:22.760Z,24.00
2022-09-07T13:01:17.605Z,24.20
2022-09-07T13:11:26.745Z,24.50
2022-09-07T13:16:11.755Z,24.50
2022-09-07T13:20:40.595Z,24.60
2022-09-07T13:25:23.617Z,24.80
2022-09-07T13:29:55.204Z,25.10
2022-09-07T13:34:32.570Z,25.10
2022-09-07T13:38:58.963Z,25.10
2022-09-07T13:43:25.152Z,25.20
2022-09-07T13:48:31.151Z,25.20
2022-09-07T13:53:20.508Z,25.40
2022-09-07T13:58:11.752Z,25.60
2022-09-07T14:02:38.481Z,25.60
2022-09-07T14:07:15.092Z,25.90
2022-09-07T14:11:40.160Z,26.00
2022-09-07T14:16:06.685Z,26.10
2022-09-07T14:20:38.304Z,26.30
2022-09-07T14:25:06.740Z,26.50
2022-09-07T14:29:36.278Z,26.70
2022-09-07T14:34:01.784Z,26.80
2022-09-07T14:43:33.989Z,27.20
2022-09-07T14:47:59.638Z,27.30
2022-09-07T14:52:42.594Z,27.40
2022-09-07T14:57:12.264Z,27.40
2022-09-07T15:01:38.126Z,27.40
2022-09-07T15:06:04.713Z,27.30
2022-09-07T15:15:41.106Z,27.10
2022-09-07T15:20:35.261Z,26.90
2022-09-07T15:25:00.563Z,27.20
2022-09-07T15:29:29.136Z,27.30
2022-09-07T15:33:54.954Z,27.40
2022-09-07T15:43:19.507Z,27.20
2022-09-07T15:47:52.079Z,27.00
2022-09-07T15:52:18.741Z,27.10
2022-09-07T15:57:47.613Z,27.20
2022-09-07T16:06:15.102Z,27.20
2022-09-07T16:10:41.378Z,27.20
2022-09-07T16:15:12.481Z,26.90
2022-09-07T16:19:41.078Z,26.80
2022-09-07T16:24:10.352Z,26.60
2022-09-07T16:28:42.655Z,26.50
2022-09-07T16:33:08.382Z,26.40
2022-09-07T16:37:34.099Z,26.20
2022-09-07T16:42:00.239Z,26.20
2022-09-07T16:46:28.949Z,26.10
2022-09-07T16:51:01.154Z,25.90
2022-09-07T16:55:27.902Z,25.70
2022-09-07T16:59:53.174Z,25.60
2022-09-07T17:04:18.774Z,25.40
2022-09-07T17:08:44.340Z,25.30
2022-09-07T17:13:09.849Z,25.20
2022-09-07T17:17:35.077Z,25.10
2022-09-07T17:22:00.641Z,25.00
2022-09-07T17:26:27.587Z,24.90
2022-09-07T17:30:52.886Z,24.70
2022-09-07T17:35:19.330Z,24.50
2022-09-07T17:39:44.776Z,24.40
2022-09-07T17:44:10.161Z,24.30
2022-09-07T17:48:36.430Z,24.10
2022-09-07T17:53:01.633Z,24.10
2022-09-07T17:57:27.399Z,24.00
2022-09-07T18:01:53.963Z,23.90
2022-09-07T18:06:20.497Z,23.80
2022-09-07T18:15:31.878Z,23.60
2022-09-07T18:19:57.264Z,23.50
2022-09-07T18:24:24.237Z,23.40
2022-09-07T18:33:39.638Z,23.20
2022-09-07T18:38:06.908Z,23.00
2022-09-07T18:42:32.154Z,22.90
2022-09-07T18:46:57.649Z,22.80
2022-09-07T18:51:22.862Z,22.60
2022-09-07T18:55:47.928Z,22.50
2022-09-07T19:00:13.951Z,22.40
2022-09-07T19:09:24.636Z,22.10
2022-09-07T19:13:57.902Z,22.00
2022-09-07T19:18:23.062Z,21.90
2022-09-07T19:22:48.733Z,21.80
2022-09-07T19:27:13.898Z,21.70
2022-09-07T19:31:39.098Z,21.60
2022-09-07T19:36:05.786Z,21.50
2022-09-07T19:40:30.933Z,21.40
2022-09-07T19:44:56.020Z,21.40
2022-09-07T19:49:21.111Z,21.30
2022-09-07T19:53:47.190Z,21.20
2022-09-07T19:58:12.768Z,21.10
2022-09-07T20:02:37.866Z,21.00
2022-09-07T20:07:02.981Z,20.90
2022-09-07T20:11:31.350Z,20.80
2022-09-07T20:15:56.881Z,20.80
2022-09-07T20:20:22.189Z,20.70
2022-09-07T20:24:47.534Z,20.60
2022-09-07T20:29:29.205Z,20.50
2022-09-07T20:33:54.851Z,20.40
2022-09-07T20:38:23.047Z,20.30
2022-09-07T20:42:48.229Z,20.30
2022-09-07T20:47:13.417Z,20.20
2022-09-07T20:51:38.933Z,20.10
2022-09-07T20:56:16.735Z,19.90
2022-09-07T21:00:42.467Z,19.90
2022-09-07T21:05:08.196Z,19.80
2022-09-07T21:09:33.361Z,19.70
2022-09-07T21:14:14.830Z,19.70
2022-09-07T21:18:41.409Z,19.70
2022-09-07T21:23:06.710Z,19.60
2022-09-07T21:27:38.625Z,19.60
2022-09-07T21:32:04.390Z,19.50
2022-09-07T21:36:29.997Z,19.50
2022-09-07T21:40:55.140Z,19.50
2022-09-07T21:45:20.901Z,19.50
2022-09-07T21:49:46.092Z,19.40
2022-09-07T21:54:11.373Z,19.40
2022-09-07T21:58:36.791Z,19.30
2022-09-07T22:03:02.002Z,19.20
2022-09-07T22:07:27.185Z,19.20
2022-09-07T22:11:52.495Z,19.10
2022-09-07T22:16:17.759Z,19.10
2022-09-07T22:20:43.293Z,19.10
2022-09-07T22:25:08.726Z,19.00
2022-09-07T22:29:33.893Z,19.00
2022-09-07T22:34:01.330Z,18.90
2022-09-07T22:38:28.079Z,18.90
2022-09-07T22:42:53.225Z,18.90
2022-09-07T22:47:18.334Z,18.90
2022-09-07T22:51:44.567Z,18.90
2022-09-07T22:56:19.484Z,18.80
2022-09-07T23:00:46.808Z,18.80
2022-09-07T23:05:12.054Z,18.70
2022-09-07T23:09:37.359Z,18.60
2022-09-07T23:14:06.570Z,18.50
2022-09-07T23:18:32.039Z,18.50
2022-09-07T23:22:57.151Z,18.40
2022-09-07T23:27:22.305Z,18.30
2022-09-07T23:31:48.124Z,18.30
2022-09-07T23:36:13.456Z,18.20
2022-09-07T23:40:39.109Z,18.20
2022-09-07T23:45:05.697Z,18.10
2022-09-07T23:49:30.845Z,18.10
2022-09-07T23:53:55.994Z,18.10
2022-09-07T23:58:22.584Z,18.00
